createdAt,value
2017-01-06T00:03:14.542Z,1029
2017-01-06T00:13:27.750Z,1029.1
2017-01-06T00:23:41.019Z,1029.2
2017-01-06T00:33:54.310Z,1029.2
2017-01-06T00:44:07.633Z,1029.2
2017-01-06T00:54:20.960Z,1029.2
2017-01-06T01:04:34.213Z,1029
2017-01-06T01:14:47.449Z,1029.2
2017-01-06T01:25:00.663Z,1029.3
2017-01-06T01:35:13.875Z,1029.1
2017-01-06T01:45:27.132Z,1029.2
2017-01-06T01:55:40.431Z,1029.2
2017-01-06T02:05:53.746Z,1029.1
2017-01-06T02:16:07.032Z,1029.2
2017-01-06T02:26:20.332Z,1029.2
2017-01-06T02:36:33.710Z,1029.4
2017-01-06T02:46:47.041Z,1029.4
2017-01-06T02:57:00.475Z,1029.5
2017-01-06T03:07:13.826Z,1029.5
2017-01-06T03:17:27.274Z,1029.7
2017-01-06T03:27:40.736Z,1029.6
2017-01-06T03:37:54.184Z,1029.6
2017-01-06T03:48:07.675Z,1029.5
2017-01-06T03:58:21.251Z,1029.5
2017-01-06T04:08:34.707Z,1029.6
2017-01-06T04:18:48.174Z,1029.6
2017-01-06T04:29:01.658Z,1029.6
2017-01-06T04:39:15.133Z,1029.7
2017-01-06T04:49:28.724Z,1029.8
2017-01-06T04:59:42.326Z,1029.9
2017-01-06T05:09:55.914Z,1030
2017-01-06T05:20:09.516Z,1030
2017-01-06T05:30:23.142Z,1030
2017-01-06T05:40:36.683Z,1030
2017-01-06T05:50:50.243Z,1030
2017-01-06T06:01:03.791Z,1030
2017-01-06T06:11:17.420Z,1030.1
2017-01-06T06:21:31.002Z,1030
2017-01-06T06:31:44.531Z,1030
2017-01-06T06:41:58.136Z,1030
2017-01-06T06:52:11.643Z,1030
2017-01-06T07:02:25.117Z,1030.1
2017-01-06T07:12:38.667Z,1030.2
2017-01-06T07:22:52.156Z,1030.4
2017-01-06T07:33:05.697Z,1030.5
2017-01-06T07:43:19.167Z,1030.5
2017-01-06T07:53:32.536Z,1030.5
2017-01-06T08:03:45.679Z,1030.6
2017-01-06T08:13:58.623Z,1030.5
2017-01-06T08:24:11.249Z,1030.6
2017-01-06T08:34:23.709Z,1030.8
2017-01-06T08:44:35.994Z,1030.6
2017-01-06T08:54:48.523Z,1030.6
2017-01-06T09:05:01.325Z,1030.7
2017-01-06T09:15:14.003Z,1030.7
2017-01-06T09:25:26.453Z,1030.6
2017-01-06T09:35:38.904Z,1030.7
2017-01-06T09:45:51.403Z,1030.6
2017-01-06T09:56:03.883Z,1030.4
2017-01-06T10:06:16.323Z,1030.2
2017-01-06T10:16:28.742Z,1030.4
2017-01-06T10:26:40.756Z,1030.2
2017-01-06T10:36:52.452Z,1030.3
2017-01-06T10:47:03.912Z,1030.2
2017-01-06T10:57:15.358Z,1030.8
2017-01-06T11:07:26.705Z,1030.7
2017-01-06T11:17:37.961Z,1030.3
2017-01-06T11:27:49.290Z,1030.2
2017-01-06T11:38:00.756Z,1030.2
2017-01-06T11:48:12.214Z,1030.1
2017-01-06T11:58:23.525Z,1030.1
2017-01-06T12:08:34.724Z,1029.9
2017-01-06T12:18:46.038Z,1029.7
2017-01-06T12:28:57.716Z,1029.5
2017-01-06T12:39:09.553Z,1029.3
2017-01-06T12:49:21.090Z,1029.1
2017-01-06T12:59:32.318Z,1029.2
2017-01-06T13:09:43.399Z,1029.2
2017-01-06T13:19:54.370Z,1029.5
2017-01-06T13:30:05.333Z,1029.4
2017-01-06T13:40:16.327Z,1029.4
2017-01-06T13:50:27.365Z,1029.3
2017-01-06T14:00:38.451Z,1029.3
2017-01-06T14:10:49.590Z,1029.3
2017-01-06T14:21:00.806Z,1029.1
2017-01-06T14:31:11.931Z,1029.1
2017-01-06T14:41:23.144Z,1029
2017-01-06T14:51:34.447Z,1028.9
2017-01-06T15:01:45.884Z,1028.7
2017-01-06T15:11:57.535Z,1028.6
2017-01-06T15:22:09.519Z,1028.6
2017-01-06T15:32:21.736Z,1028.7
2017-01-06T15:42:34.255Z,1028.6
2017-01-06T15:52:46.842Z,1028.6
2017-01-06T16:02:59.556Z,1028.5
2017-01-06T16:13:12.366Z,1028.3
2017-01-06T16:23:25.151Z,1028.5
2017-01-06T16:33:37.965Z,1028.2
2017-01-06T16:43:50.787Z,1028.1
2017-01-06T16:54:03.700Z,1028.1
2017-01-06T17:04:16.616Z,1028.1
2017-01-06T17:14:29.533Z,1028
2017-01-06T17:24:42.439Z,1027.9
2017-01-06T17:34:55.320Z,1027.8
2017-01-06T17:45:08.268Z,1027.8
2017-01-06T17:55:21.176Z,1027.8
2017-01-06T18:05:34.126Z,1027.6
2017-01-06T18:15:47.055Z,1027.7
2017-01-06T18:26:00.007Z,1027.5
2017-01-06T18:36:12.880Z,1027.6
2017-01-06T18:46:25.681Z,1027.6
2017-01-06T18:56:38.526Z,1027.6
2017-01-06T19:06:51.341Z,1027.5
2017-01-06T19:17:04.230Z,1027.3
2017-01-06T19:27:17.124Z,1027.2
2017-01-06T19:37:30.039Z,1027.1
2017-01-06T19:47:42.980Z,1026.9
2017-01-06T19:57:55.936Z,1026.7
2017-01-06T20:08:08.927Z,1026.8
2017-01-06T20:18:21.927Z,1026.8
2017-01-06T20:28:34.953Z,1026.9
2017-01-06T20:38:47.986Z,1026.7
2017-01-06T20:49:00.993Z,1026.8
2017-01-06T20:59:14.049Z,1026.8
2017-01-06T21:09:27.190Z,1026.9
2017-01-06T21:19:40.351Z,1026.8
2017-01-06T21:29:53.445Z,1026.7
2017-01-06T21:40:06.523Z,1026.6
2017-01-06T21:50:19.653Z,1026.5
2017-01-06T22:00:32.761Z,1026.4
2017-01-06T22:10:45.889Z,1026.5
2017-01-06T22:20:59.032Z,1026.3
2017-01-06T22:31:12.183Z,1026.2
2017-01-06T22:41:25.315Z,1025.9
2017-01-06T22:51:38.570Z,1026
2017-01-06T23:01:51.661Z,1025.9
2017-01-06T23:12:04.732Z,1025.8
2017-01-06T23:22:17.826Z,1025.7
2017-01-06T23:32:30.893Z,1025.3
2017-01-06T23:42:44.022Z,1025.3
2017-01-06T23:52:57.110Z,1025.3
